sensor_id;sensor_type;location;lat;lon;timestamp;P1;durP1;ratioP1;P2;durP2;ratioP2
7647;SDS011;3866;48.020;11.720;2023-07-13T00:01:04;4.20;;;2.97;;
7647;SDS011;3866;48.020;11.720;2023-07-13T00:03:32;5.53;;;2.83;;
7647;SDS011;3866;48.020;11.720;2023-07-13T00:06:01;3.60;;;2.47;;
7647;SDS011;3866;48.020;11.720;2023-07-13T00:08:30;3.37;;;2.77;;
7647;SDS011;3866;48.020;11.720;2023-07-13T00:10:58;5.00;;;2.83;;
7647;SDS011;3866;48.020;11.720;2023-07-13T00:13:25;3.30;;;2.90;;
7647;SDS011;3866;48.020;11.720;2023-07-13T00:15:52;5.00;;;3.17;;
7647;SDS011;3866;48.020;11.720;2023-07-13T00:18:19;4.30;;;2.80;;
7647;SDS011;3866;48.020;11.720;2023-07-13T00:20:46;3.80;;;2.80;;
7647;SDS011;3866;48.020;11.720;2023-07-13T00:23:15;3.63;;;2.57;;
7647;SDS011;3866;48.020;11.720;2023-07-13T00:25:44;3.57;;;2.87;;
7647;SDS011;3866;48.020;11.720;2023-07-13T00:28:11;3.27;;;2.67;;
7647;SDS011;3866;48.020;11.720;2023-07-13T00:30:38;3.23;;;2.33;;
7647;SDS011;3866;48.020;11.720;2023-07-13T00:33:05;4.20;;;2.83;;
7647;SDS011;3866;48.020;11.720;2023-07-13T00:35:32;3.17;;;2.87;;
7647;SDS011;3866;48.020;11.720;2023-07-13T00:38:00;3.90;;;3.17;;
7647;SDS011;3866;48.020;11.720;2023-07-13T00:40:29;4.23;;;2.73;;
7647;SDS011;3866;48.020;11.720;2023-07-13T00:42:56;3.73;;;2.80;;
7647;SDS011;3866;48.020;11.720;2023-07-13T00:48:32;4.03;;;2.97;;
7647;SDS011;3866;48.020;11.720;2023-07-13T00:51:01;3.07;;;2.70;;
7647;SDS011;3866;48.020;11.720;2023-07-13T00:53:29;3.20;;;2.60;;
7647;SDS011;3866;48.020;11.720;2023-07-13T00:55:59;3.20;;;2.73;;
7647;SDS011;3866;48.020;11.720;2023-07-13T00:58:27;3.17;;;2.80;;
7647;SDS011;3866;48.020;11.720;2023-07-13T01:00:55;4.03;;;2.70;;
7647;SDS011;3866;48.020;11.720;2023-07-13T01:03:22;4.63;;;3.23;;
7647;SDS011;3866;48.020;11.720;2023-07-13T01:05:49;4.80;;;3.03;;
7647;SDS011;3866;48.020;11.720;2023-07-13T01:08:16;5.67;;;3.20;;
7647;SDS011;3866;48.020;11.720;2023-07-13T01:10:50;3.73;;;2.63;;
7647;SDS011;3866;48.020;11.720;2023-07-13T01:13:19;4.17;;;2.90;;
7647;SDS011;3866;48.020;11.720;2023-07-13T01:15:48;5.40;;;2.80;;
7647;SDS011;3866;48.020;11.720;2023-07-13T01:18:17;7.10;;;2.83;;
7647;SDS011;3866;48.020;11.720;2023-07-13T01:20:49;3.03;;;2.73;;
7647;SDS011;3866;48.020;11.720;2023-07-13T01:23:17;6.30;;;2.90;;
7647;SDS011;3866;48.020;11.720;2023-07-13T01:25:45;3.13;;;2.63;;
7647;SDS011;3866;48.020;11.720;2023-07-13T01:28:13;5.47;;;2.80;;
7647;SDS011;3866;48.020;11.720;2023-07-13T01:30:42;2.57;;;2.37;;
7647;SDS011;3866;48.020;11.720;2023-07-13T01:33:11;4.27;;;2.67;;
7647;SDS011;3866;48.020;11.720;2023-07-13T01:35:39;3.03;;;2.40;;
7647;SDS011;3866;48.020;11.720;2023-07-13T01:38:07;5.73;;;2.37;;
7647;SDS011;3866;48.020;11.720;2023-07-13T01:40:35;3.03;;;2.73;;
7647;SDS011;3866;48.020;11.720;2023-07-13T01:43:03;4.67;;;2.30;;
7647;SDS011;3866;48.020;11.720;2023-07-13T01:45:30;4.53;;;2.53;;
7647;SDS011;3866;48.020;11.720;2023-07-13T01:47:57;6.07;;;2.23;;
7647;SDS011;3866;48.020;11.720;2023-07-13T01:50:24;3.80;;;2.57;;
7647;SDS011;3866;48.020;11.720;2023-07-13T01:52:51;4.93;;;2.00;;
7647;SDS011;3866;48.020;11.720;2023-07-13T01:55:20;4.00;;;2.50;;
7647;SDS011;3866;48.020;11.720;2023-07-13T01:57:47;3.30;;;2.20;;
7647;SDS011;3866;48.020;11.720;2023-07-13T02:00:14;4.03;;;2.70;;
7647;SDS011;3866;48.020;11.720;2023-07-13T02:02:42;4.00;;;2.30;;
7647;SDS011;3866;48.020;11.720;2023-07-13T02:05:09;4.40;;;2.90;;
7647;SDS011;3866;48.020;11.720;2023-07-13T02:07:36;2.90;;;2.50;;
7647;SDS011;3866;48.020;11.720;2023-07-13T02:10:03;4.07;;;2.93;;
7647;SDS011;3866;48.020;11.720;2023-07-13T02:12:32;3.23;;;2.63;;
7647;SDS011;3866;48.020;11.720;2023-07-13T02:14:59;5.10;;;2.90;;
7647;SDS011;3866;48.020;11.720;2023-07-13T02:17:26;3.33;;;2.83;;
7647;SDS011;3866;48.020;11.720;2023-07-13T02:19:53;5.57;;;3.00;;
7647;SDS011;3866;48.020;11.720;2023-07-13T02:22:20;3.23;;;2.30;;
7647;SDS011;3866;48.020;11.720;2023-07-13T02:24:48;3.97;;;2.20;;
7647;SDS011;3866;48.020;11.720;2023-07-13T02:27:15;5.37;;;2.33;;
7647;SDS011;3866;48.020;11.720;2023-07-13T02:29:43;2.60;;;2.40;;
7647;SDS011;3866;48.020;11.720;2023-07-13T02:32:10;2.57;;;2.33;;
7647;SDS011;3866;48.020;11.720;2023-07-13T02:34:37;4.57;;;2.80;;
7647;SDS011;3866;48.020;11.720;2023-07-13T02:37:04;3.57;;;2.43;;
7647;SDS011;3866;48.020;11.720;2023-07-13T02:39:31;3.20;;;2.50;;
7647;SDS011;3866;48.020;11.720;2023-07-13T02:41:58;3.13;;;2.30;;
7647;SDS011;3866;48.020;11.720;2023-07-13T02:44:25;4.50;;;2.63;;
7647;SDS011;3866;48.020;11.720;2023-07-13T02:46:54;2.33;;;2.07;;
7647;SDS011;3866;48.020;11.720;2023-07-13T02:49:20;3.53;;;1.83;;
7647;SDS011;3866;48.020;11.720;2023-07-13T02:51:47;3.63;;;2.47;;
7647;SDS011;3866;48.020;11.720;2023-07-13T02:54:14;3.03;;;2.53;;
7647;SDS011;3866;48.020;11.720;2023-07-13T02:56:41;4.43;;;2.30;;
7647;SDS011;3866;48.020;11.720;2023-07-13T02:59:08;3.07;;;2.40;;
7647;SDS011;3866;48.020;11.720;2023-07-13T03:01:36;4.10;;;2.90;;
7647;SDS011;3866;48.020;11.720;2023-07-13T03:04:04;3.30;;;2.50;;
7647;SDS011;3866;48.020;11.720;2023-07-13T03:06:31;3.13;;;2.40;;
7647;SDS011;3866;48.020;11.720;2023-07-13T03:08:59;4.80;;;2.70;;
7647;SDS011;3866;48.020;11.720;2023-07-13T03:11:26;3.67;;;2.50;;
7647;SDS011;3866;48.020;11.720;2023-07-13T03:13:53;4.73;;;2.67;;
7647;SDS011;3866;48.020;11.720;2023-07-13T03:16:20;4.27;;;2.57;;
7647;SDS011;3866;48.020;11.720;2023-07-13T03:18:47;5.37;;;2.43;;
7647;SDS011;3866;48.020;11.720;2023-07-13T03:21:15;5.03;;;2.73;;
7647;SDS011;3866;48.020;11.720;2023-07-13T03:23:43;4.17;;;2.50;;
7647;SDS011;3866;48.020;11.720;2023-07-13T03:26:10;4.87;;;3.23;;
7647;SDS011;3866;48.020;11.720;2023-07-13T03:28:39;5.87;;;3.53;;
7647;SDS011;3866;48.020;11.720;2023-07-13T03:31:06;4.80;;;3.63;;
7647;SDS011;3866;48.020;11.720;2023-07-13T03:33:35;7.23;;;3.57;;
7647;SDS011;3866;48.020;11.720;2023-07-13T03:36:02;6.53;;;4.17;;
7647;SDS011;3866;48.020;11.720;2023-07-13T03:38:32;5.23;;;3.70;;
7647;SDS011;3866;48.020;11.720;2023-07-13T03:40:59;5.83;;;4.10;;
7647;SDS011;3866;48.020;11.720;2023-07-13T03:43:26;5.63;;;4.00;;
7647;SDS011;3866;48.020;11.720;2023-07-13T03:45:53;5.87;;;3.83;;
7647;SDS011;3866;48.020;11.720;2023-07-13T03:48:19;6.40;;;4.60;;
7647;SDS011;3866;48.020;11.720;2023-07-13T03:50:46;5.00;;;4.03;;
7647;SDS011;3866;48.020;11.720;2023-07-13T03:53:14;5.43;;;4.00;;
7647;SDS011;3866;48.020;11.720;2023-07-13T03:55:44;4.47;;;3.57;;
7647;SDS011;3866;48.020;11.720;2023-07-13T03:58:24;5.27;;;3.93;;
7647;SDS011;3866;48.020;11.720;2023-07-13T04:00:53;5.27;;;3.83;;
7647;SDS011;3866;48.020;11.720;2023-07-13T04:03:20;4.63;;;3.73;;
7647;SDS011;3866;48.020;11.720;2023-07-13T04:05:47;4.67;;;4.00;;
7647;SDS011;3866;48.020;11.720;2023-07-13T04:08:14;4.40;;;3.50;;
7647;SDS011;3866;48.020;11.720;2023-07-13T04:10:42;4.20;;;3.60;;
7647;SDS011;3866;48.020;11.720;2023-07-13T04:13:09;5.03;;;4.00;;
7647;SDS011;3866;48.020;11.720;2023-07-13T04:15:36;6.67;;;3.77;;
7647;SDS011;3866;48.020;11.720;2023-07-13T04:18:04;3.87;;;3.57;;
7647;SDS011;3866;48.020;11.720;2023-07-13T04:20:31;6.13;;;3.70;;
7647;SDS011;3866;48.020;11.720;2023-07-13T04:22:58;4.43;;;3.37;;
7647;SDS011;3866;48.020;11.720;2023-07-13T04:25:25;5.23;;;3.77;;
7647;SDS011;3866;48.020;11.720;2023-07-13T04:27:54;4.77;;;3.30;;
7647;SDS011;3866;48.020;11.720;2023-07-13T04:30:21;6.07;;;3.73;;
7647;SDS011;3866;48.020;11.720;2023-07-13T04:32:49;5.47;;;3.50;;
7647;SDS011;3866;48.020;11.720;2023-07-13T04:35:18;7.10;;;4.00;;
7647;SDS011;3866;48.020;11.720;2023-07-13T04:37:45;6.90;;;4.07;;
7647;SDS011;3866;48.020;11.720;2023-07-13T04:40:13;4.23;;;3.70;;
7647;SDS011;3866;48.020;11.720;2023-07-13T04:42:40;6.23;;;4.20;;
7647;SDS011;3866;48.020;11.720;2023-07-13T04:45:09;4.57;;;3.40;;
7647;SDS011;3866;48.020;11.720;2023-07-13T04:47:36;3.83;;;3.20;;
7647;SDS011;3866;48.020;11.720;2023-07-13T04:50:03;4.03;;;3.17;;
7647;SDS011;3866;48.020;11.720;2023-07-13T04:52:30;6.00;;;3.03;;
7647;SDS011;3866;48.020;11.720;2023-07-13T04:54:58;4.17;;;2.97;;
7647;SDS011;3866;48.020;11.720;2023-07-13T04:57:25;3.80;;;2.90;;
7647;SDS011;3866;48.020;11.720;2023-07-13T04:59:52;4.80;;;3.47;;
7647;SDS011;3866;48.020;11.720;2023-07-13T05:02:21;4.80;;;3.13;;
7647;SDS011;3866;48.020;11.720;2023-07-13T05:04:48;4.80;;;3.00;;
7647;SDS011;3866;48.020;11.720;2023-07-13T05:07:15;4.30;;;2.90;;
7647;SDS011;3866;48.020;11.720;2023-07-13T05:09:42;4.77;;;2.77;;
7647;SDS011;3866;48.020;11.720;2023-07-13T05:12:09;3.23;;;2.87;;
7647;SDS011;3866;48.020;11.720;2023-07-13T05:14:36;4.77;;;2.93;;
7647;SDS011;3866;48.020;11.720;2023-07-13T05:17:03;4.37;;;3.13;;
7647;SDS011;3866;48.020;11.720;2023-07-13T05:19:32;4.60;;;2.90;;
7647;SDS011;3866;48.020;11.720;2023-07-13T05:21:59;4.03;;;3.00;;
7647;SDS011;3866;48.020;11.720;2023-07-13T05:24:26;3.93;;;3.13;;
7647;SDS011;3866;48.020;11.720;2023-07-13T05:26:53;5.83;;;3.10;;
7647;SDS011;3866;48.020;11.720;2023-07-13T05:29:20;4.73;;;3.13;;
7647;SDS011;3866;48.020;11.720;2023-07-13T05:31:47;3.53;;;2.30;;
7647;SDS011;3866;48.020;11.720;2023-07-13T05:34:14;4.47;;;2.87;;
7647;SDS011;3866;48.020;11.720;2023-07-13T05:36:42;7.77;;;3.00;;
7647;SDS011;3866;48.020;11.720;2023-07-13T05:39:09;4.80;;;2.87;;
7647;SDS011;3866;48.020;11.720;2023-07-13T05:41:36;4.43;;;2.90;;
7647;SDS011;3866;48.020;11.720;2023-07-13T05:44:03;3.83;;;3.07;;
7647;SDS011;3866;48.020;11.720;2023-07-13T05:46:30;4.93;;;3.03;;
7647;SDS011;3866;48.020;11.720;2023-07-13T05:48:57;4.30;;;3.50;;
7647;SDS011;3866;48.020;11.720;2023-07-13T05:51:24;4.17;;;2.77;;
7647;SDS011;3866;48.020;11.720;2023-07-13T05:53:52;2.97;;;2.67;;
7647;SDS011;3866;48.020;11.720;2023-07-13T05:56:19;6.53;;;3.33;;
7647;SDS011;3866;48.020;11.720;2023-07-13T05:58:47;3.90;;;3.47;;
7647;SDS011;3866;48.020;11.720;2023-07-13T06:01:14;5.13;;;3.10;;
7647;SDS011;3866;48.020;11.720;2023-07-13T06:03:42;3.00;;;2.70;;
7647;SDS011;3866;48.020;11.720;2023-07-13T06:06:09;4.87;;;3.70;;
7647;SDS011;3866;48.020;11.720;2023-07-13T06:08:36;6.00;;;4.67;;
7647;SDS011;3866;48.020;11.720;2023-07-13T06:11:06;5.30;;;3.20;;
7647;SDS011;3866;48.020;11.720;2023-07-13T06:13:34;4.20;;;3.57;;
7647;SDS011;3866;48.020;11.720;2023-07-13T06:16:01;5.53;;;3.43;;
7647;SDS011;3866;48.020;11.720;2023-07-13T06:18:30;5.73;;;3.20;;
7647;SDS011;3866;48.020;11.720;2023-07-13T06:20:57;4.17;;;3.53;;
7647;SDS011;3866;48.020;11.720;2023-07-13T06:23:24;4.83;;;2.70;;
7647;SDS011;3866;48.020;11.720;2023-07-13T06:25:52;3.30;;;2.97;;
7647;SDS011;3866;48.020;11.720;2023-07-13T06:28:20;3.80;;;2.50;;
7647;SDS011;3866;48.020;11.720;2023-07-13T06:30:47;4.53;;;2.67;;
7647;SDS011;3866;48.020;11.720;2023-07-13T06:33:13;6.43;;;3.63;;
7647;SDS011;3866;48.020;11.720;2023-07-13T06:35:40;3.20;;;2.90;;
7647;SDS011;3866;48.020;11.720;2023-07-13T06:38:07;2.37;;;2.17;;
7647;SDS011;3866;48.020;11.720;2023-07-13T06:40:34;3.23;;;2.23;;
7647;SDS011;3866;48.020;11.720;2023-07-13T06:43:01;5.13;;;2.70;;
7647;SDS011;3866;48.020;11.720;2023-07-13T06:45:29;5.30;;;3.20;;
7647;SDS011;3866;48.020;11.720;2023-07-13T06:47:56;2.67;;;2.47;;
7647;SDS011;3866;48.020;11.720;2023-07-13T06:50:23;3.67;;;2.67;;
7647;SDS011;3866;48.020;11.720;2023-07-13T06:52:50;4.20;;;2.97;;
7647;SDS011;3866;48.020;11.720;2023-07-13T06:55:17;4.00;;;3.17;;
7647;SDS011;3866;48.020;11.720;2023-07-13T06:57:44;4.73;;;2.80;;
7647;SDS011;3866;48.020;11.720;2023-07-13T07:00:11;5.07;;;2.60;;
7647;SDS011;3866;48.020;11.720;2023-07-13T07:02:40;3.37;;;2.47;;
7647;SDS011;3866;48.020;11.720;2023-07-13T07:05:07;3.20;;;2.70;;
7647;SDS011;3866;48.020;11.720;2023-07-13T07:07:34;4.10;;;2.83;;
7647;SDS011;3866;48.020;11.720;2023-07-13T07:10:01;4.33;;;3.63;;
7647;SDS011;3866;48.020;11.720;2023-07-13T07:12:29;3.30;;;2.97;;
7647;SDS011;3866;48.020;11.720;2023-07-13T07:14:57;3.63;;;2.77;;
7647;SDS011;3866;48.020;11.720;2023-07-13T07:17:24;4.53;;;3.07;;
7647;SDS011;3866;48.020;11.720;2023-07-13T07:19:52;4.93;;;3.20;;
7647;SDS011;3866;48.020;11.720;2023-07-13T07:22:19;3.70;;;2.90;;
7647;SDS011;3866;48.020;11.720;2023-07-13T07:24:46;6.50;;;2.87;;
7647;SDS011;3866;48.020;11.720;2023-07-13T07:27:13;5.13;;;3.20;;
7647;SDS011;3866;48.020;11.720;2023-07-13T07:29:40;3.77;;;3.07;;
7647;SDS011;3866;48.020;11.720;2023-07-13T07:32:07;5.10;;;3.10;;
7647;SDS011;3866;48.020;11.720;2023-07-13T07:34:34;4.97;;;3.10;;
7647;SDS011;3866;48.020;11.720;2023-07-13T07:37:02;3.93;;;3.13;;
7647;SDS011;3866;48.020;11.720;2023-07-13T07:39:30;4.67;;;2.73;;
7647;SDS011;3866;48.020;11.720;2023-07-13T07:41:57;4.43;;;2.93;;
7647;SDS011;3866;48.020;11.720;2023-07-13T07:44:24;4.40;;;3.20;;
7647;SDS011;3866;48.020;11.720;2023-07-13T07:46:52;3.37;;;2.90;;
7647;SDS011;3866;48.020;11.720;2023-07-13T07:49:19;5.37;;;2.83;;
7647;SDS011;3866;48.020;11.720;2023-07-13T07:51:46;3.87;;;2.83;;
7647;SDS011;3866;48.020;11.720;2023-07-13T07:54:14;3.93;;;3.03;;
7647;SDS011;3866;48.020;11.720;2023-07-13T07:56:42;4.80;;;2.73;;
7647;SDS011;3866;48.020;11.720;2023-07-13T07:59:09;5.50;;;2.57;;
7647;SDS011;3866;48.020;11.720;2023-07-13T08:01:36;3.67;;;2.67;;
7647;SDS011;3866;48.020;11.720;2023-07-13T08:04:03;5.80;;;2.90;;
7647;SDS011;3866;48.020;11.720;2023-07-13T08:06:31;5.20;;;2.57;;
7647;SDS011;3866;48.020;11.720;2023-07-13T08:08:58;3.00;;;2.17;;
7647;SDS011;3866;48.020;11.720;2023-07-13T08:11:26;3.00;;;2.57;;
7647;SDS011;3866;48.020;11.720;2023-07-13T08:13:53;6.27;;;2.20;;
7647;SDS011;3866;48.020;11.720;2023-07-13T08:16:20;6.03;;;2.63;;
7647;SDS011;3866;48.020;11.720;2023-07-13T08:18:47;3.63;;;2.63;;
7647;SDS011;3866;48.020;11.720;2023-07-13T08:21:14;7.40;;;4.17;;
7647;SDS011;3866;48.020;11.720;2023-07-13T08:23:42;2.77;;;2.37;;
7647;SDS011;3866;48.020;11.720;2023-07-13T08:26:09;6.60;;;2.80;;
7647;SDS011;3866;48.020;11.720;2023-07-13T08:28:37;2.67;;;2.13;;
7647;SDS011;3866;48.020;11.720;2023-07-13T08:31:04;3.63;;;2.63;;
7647;SDS011;3866;48.020;11.720;2023-07-13T08:33:33;4.03;;;2.63;;
7647;SDS011;3866;48.020;11.720;2023-07-13T08:36:01;2.93;;;2.63;;
7647;SDS011;3866;48.020;11.720;2023-07-13T08:38:31;5.10;;;2.90;;
7647;SDS011;3866;48.020;11.720;2023-07-13T08:40:57;5.03;;;3.30;;
7647;SDS011;3866;48.020;11.720;2023-07-13T08:43:25;3.30;;;2.70;;
7647;SDS011;3866;48.020;11.720;2023-07-13T08:45:57;5.10;;;2.50;;
7647;SDS011;3866;48.020;11.720;2023-07-13T08:48:28;4.00;;;2.77;;
7647;SDS011;3866;48.020;11.720;2023-07-13T08:51:00;7.90;;;3.10;;
7647;SDS011;3866;48.020;11.720;2023-07-13T08:53:36;4.83;;;3.50;;
7647;SDS011;3866;48.020;11.720;2023-07-13T08:56:07;3.57;;;3.27;;
7647;SDS011;3866;48.020;11.720;2023-07-13T08:58:39;6.93;;;2.67;;
7647;SDS011;3866;48.020;11.720;2023-07-13T09:01:10;5.50;;;4.10;;
7647;SDS011;3866;48.020;11.720;2023-07-13T09:03:47;4.37;;;3.33;;
7647;SDS011;3866;48.020;11.720;2023-07-13T09:06:20;3.97;;;2.70;;
7647;SDS011;3866;48.020;11.720;2023-07-13T09:08:55;5.53;;;3.23;;
7647;SDS011;3866;48.020;11.720;2023-07-13T09:11:29;5.07;;;2.73;;
7647;SDS011;3866;48.020;11.720;2023-07-13T09:14:13;3.53;;;2.97;;
7647;SDS011;3866;48.020;11.720;2023-07-13T09:16:59;5.73;;;3.33;;
7647;SDS011;3866;48.020;11.720;2023-07-13T09:19:30;4.17;;;2.60;;
7647;SDS011;3866;48.020;11.720;2023-07-13T09:21:59;4.60;;;2.87;;
7647;SDS011;3866;48.020;11.720;2023-07-13T09:24:29;4.73;;;2.63;;
7647;SDS011;3866;48.020;11.720;2023-07-13T09:27:03;5.20;;;3.10;;
7647;SDS011;3866;48.020;11.720;2023-07-13T09:29:39;4.93;;;3.07;;
7647;SDS011;3866;48.020;11.720;2023-07-13T09:32:13;6.03;;;3.00;;
7647;SDS011;3866;48.020;11.720;2023-07-13T09:34:43;5.17;;;3.13;;
7647;SDS011;3866;48.020;11.720;2023-07-13T09:37:16;5.00;;;2.60;;
7647;SDS011;3866;48.020;11.720;2023-07-13T09:39:44;3.73;;;2.60;;
7647;SDS011;3866;48.020;11.720;2023-07-13T09:42:12;4.90;;;3.10;;
7647;SDS011;3866;48.020;11.720;2023-07-13T09:44:49;5.33;;;2.70;;
7647;SDS011;3866;48.020;11.720;2023-07-13T09:47:21;3.33;;;3.00;;
7647;SDS011;3866;48.020;11.720;2023-07-13T09:49:53;3.50;;;2.70;;
7647;SDS011;3866;48.020;11.720;2023-07-13T09:52:23;3.83;;;2.87;;
7647;SDS011;3866;48.020;11.720;2023-07-13T09:54:52;4.33;;;2.87;;
7647;SDS011;3866;48.020;11.720;2023-07-13T09:57:24;6.30;;;3.20;;
7647;SDS011;3866;48.020;11.720;2023-07-13T09:59:53;2.80;;;2.50;;
7647;SDS011;3866;48.020;11.720;2023-07-13T10:02:29;7.10;;;2.63;;
7647;SDS011;3866;48.020;11.720;2023-07-13T10:04:59;4.57;;;2.60;;
7647;SDS011;3866;48.020;11.720;2023-07-13T10:07:28;5.13;;;2.70;;
7647;SDS011;3866;48.020;11.720;2023-07-13T10:09:55;8.50;;;3.10;;
7647;SDS011;3866;48.020;11.720;2023-07-13T10:12:26;4.03;;;2.33;;
7647;SDS011;3866;48.020;11.720;2023-07-13T10:14:54;3.77;;;2.40;;
7647;SDS011;3866;48.020;11.720;2023-07-13T10:17:25;3.37;;;2.13;;
7647;SDS011;3866;48.020;11.720;2023-07-13T10:19:56;4.53;;;2.50;;
7647;SDS011;3866;48.020;11.720;2023-07-13T10:22:30;5.47;;;2.07;;
7647;SDS011;3866;48.020;11.720;2023-07-13T10:25:04;5.03;;;2.20;;
7647;SDS011;3866;48.020;11.720;2023-07-13T10:27:42;3.63;;;1.83;;
7647;SDS011;3866;48.020;11.720;2023-07-13T10:30:12;2.43;;;1.87;;
7647;SDS011;3866;48.020;11.720;2023-07-13T10:32:41;2.67;;;2.20;;
7647;SDS011;3866;48.020;11.720;2023-07-13T10:35:10;3.20;;;1.67;;
7647;SDS011;3866;48.020;11.720;2023-07-13T10:37:41;2.43;;;1.50;;
7647;SDS011;3866;48.020;11.720;2023-07-13T10:40:14;4.33;;;1.80;;
7647;SDS011;3866;48.020;11.720;2023-07-13T10:42:48;3.27;;;2.43;;
7647;SDS011;3866;48.020;11.720;2023-07-13T10:45:18;1.80;;;1.20;;
7647;SDS011;3866;48.020;11.720;2023-07-13T10:47:47;6.90;;;1.80;;
7647;SDS011;3866;48.020;11.720;2023-07-13T10:50:17;4.20;;;2.33;;
7647;SDS011;3866;48.020;11.720;2023-07-13T10:52:47;2.40;;;1.60;;
7647;SDS011;3866;48.020;11.720;2023-07-13T10:55:35;4.87;;;1.83;;
7647;SDS011;3866;48.020;11.720;2023-07-13T10:58:20;3.33;;;1.70;;
7647;SDS011;3866;48.020;11.720;2023-07-13T11:00:49;2.60;;;1.60;;
7647;SDS011;3866;48.020;11.720;2023-07-13T11:03:22;1.40;;;1.30;;
7647;SDS011;3866;48.020;11.720;2023-07-13T11:06:03;3.43;;;1.40;;
7647;SDS011;3866;48.020;11.720;2023-07-13T11:08:35;2.00;;;1.43;;
7647;SDS011;3866;48.020;11.720;2023-07-13T11:11:05;3.80;;;1.60;;
7647;SDS011;3866;48.020;11.720;2023-07-13T11:14:01;2.30;;;1.60;;
7647;SDS011;3866;48.020;11.720;2023-07-13T11:16:34;6.10;;;2.00;;
7647;SDS011;3866;48.020;11.720;2023-07-13T11:22:09;4.20;;;1.70;;
7647;SDS011;3866;48.020;11.720;2023-07-13T11:27:39;3.93;;;1.20;;
7647;SDS011;3866;48.020;11.720;2023-07-13T11:35:46;4.47;;;1.77;;
7647;SDS011;3866;48.020;11.720;2023-07-13T11:38:18;1.37;;;1.10;;
7647;SDS011;3866;48.020;11.720;2023-07-13T11:40:47;2.23;;;1.03;;
7647;SDS011;3866;48.020;11.720;2023-07-13T11:43:19;3.20;;;1.50;;
7647;SDS011;3866;48.020;11.720;2023-07-13T11:45:48;2.90;;;1.20;;
7647;SDS011;3866;48.020;11.720;2023-07-13T11:48:19;1.77;;;1.40;;
7647;SDS011;3866;48.020;11.720;2023-07-13T11:50:51;3.00;;;1.17;;
7647;SDS011;3866;48.020;11.720;2023-07-13T11:53:22;3.73;;;1.70;;
7647;SDS011;3866;48.020;11.720;2023-07-13T11:55:52;4.53;;;1.97;;
7647;SDS011;3866;48.020;11.720;2023-07-13T11:58:22;4.70;;;1.90;;
7647;SDS011;3866;48.020;11.720;2023-07-13T12:00:51;3.10;;;1.57;;
7647;SDS011;3866;48.020;11.720;2023-07-13T12:03:21;2.47;;;0.97;;
7647;SDS011;3866;48.020;11.720;2023-07-13T12:05:56;4.60;;;1.27;;
7647;SDS011;3866;48.020;11.720;2023-07-13T12:08:25;1.97;;;1.33;;
7647;SDS011;3866;48.020;11.720;2023-07-13T12:11:03;2.83;;;1.37;;
7647;SDS011;3866;48.020;11.720;2023-07-13T12:13:36;2.40;;;1.40;;
7647;SDS011;3866;48.020;11.720;2023-07-13T12:16:14;1.87;;;1.10;;
7647;SDS011;3866;48.020;11.720;2023-07-13T12:18:43;1.70;;;1.10;;
7647;SDS011;3866;48.020;11.720;2023-07-13T12:21:13;2.03;;;1.30;;
7647;SDS011;3866;48.020;11.720;2023-07-13T12:23:44;2.10;;;1.20;;
7647;SDS011;3866;48.020;11.720;2023-07-13T12:26:14;4.20;;;1.53;;
7647;SDS011;3866;48.020;11.720;2023-07-13T12:28:45;3.60;;;1.60;;
7647;SDS011;3866;48.020;11.720;2023-07-13T12:31:25;2.57;;;1.43;;
7647;SDS011;3866;48.020;11.720;2023-07-13T12:33:58;3.17;;;1.40;;
7647;SDS011;3866;48.020;11.720;2023-07-13T12:36:26;4.67;;;1.53;;
7647;SDS011;3866;48.020;11.720;2023-07-13T12:38:59;5.07;;;1.97;;
7647;SDS011;3866;48.020;11.720;2023-07-13T12:41:30;3.37;;;1.20;;
7647;SDS011;3866;48.020;11.720;2023-07-13T12:44:00;3.93;;;1.27;;
7647;SDS011;3866;48.020;11.720;2023-07-13T12:46:27;3.13;;;1.37;;
7647;SDS011;3866;48.020;11.720;2023-07-13T12:48:54;6.50;;;1.57;;
7647;SDS011;3866;48.020;11.720;2023-07-13T12:51:24;1.97;;;1.00;;
7647;SDS011;3866;48.020;11.720;2023-07-13T12:53:56;4.57;;;1.43;;
7647;SDS011;3866;48.020;11.720;2023-07-13T12:56:32;2.50;;;1.10;;
7647;SDS011;3866;48.020;11.720;2023-07-13T12:59:01;3.37;;;1.37;;
7647;SDS011;3866;48.020;11.720;2023-07-13T13:01:31;2.73;;;1.00;;
7647;SDS011;3866;48.020;11.720;2023-07-13T13:04:02;2.60;;;1.40;;
7647;SDS011;3866;48.020;11.720;2023-07-13T13:06:31;1.83;;;1.30;;
7647;SDS011;3866;48.020;11.720;2023-07-13T13:09:01;3.40;;;1.43;;
7647;SDS011;3866;48.020;11.720;2023-07-13T13:11:29;3.20;;;1.70;;
7647;SDS011;3866;48.020;11.720;2023-07-13T13:13:57;3.57;;;1.10;;
7647;SDS011;3866;48.020;11.720;2023-07-13T13:16:29;1.90;;;1.20;;
7647;SDS011;3866;48.020;11.720;2023-07-13T13:18:59;1.40;;;1.10;;
7647;SDS011;3866;48.020;11.720;2023-07-13T13:21:36;2.33;;;1.30;;
7647;SDS011;3866;48.020;11.720;2023-07-13T13:24:04;3.63;;;1.00;;
7647;SDS011;3866;48.020;11.720;2023-07-13T13:26:35;1.60;;;0.83;;
7647;SDS011;3866;48.020;11.720;2023-07-13T13:29:04;4.17;;;1.33;;
7647;SDS011;3866;48.020;11.720;2023-07-13T13:31:41;1.57;;;1.03;;
7647;SDS011;3866;48.020;11.720;2023-07-13T13:34:08;3.07;;;1.20;;
7647;SDS011;3866;48.020;11.720;2023-07-13T13:36:37;4.13;;;1.40;;
7647;SDS011;3866;48.020;11.720;2023-07-13T13:39:05;1.40;;;1.00;;
7647;SDS011;3866;48.020;11.720;2023-07-13T13:41:44;2.63;;;1.10;;
7647;SDS011;3866;48.020;11.720;2023-07-13T13:44:12;3.20;;;1.23;;
7647;SDS011;3866;48.020;11.720;2023-07-13T13:46:43;4.57;;;1.37;;
7647;SDS011;3866;48.020;11.720;2023-07-13T13:49:13;1.47;;;0.90;;
7647;SDS011;3866;48.020;11.720;2023-07-13T13:51:42;2.33;;;0.97;;
7647;SDS011;3866;48.020;11.720;2023-07-13T13:54:10;4.33;;;1.30;;
7647;SDS011;3866;48.020;11.720;2023-07-13T13:56:38;3.70;;;1.03;;
7647;SDS011;3866;48.020;11.720;2023-07-13T13:59:07;2.97;;;1.10;;
7647;SDS011;3866;48.020;11.720;2023-07-13T14:01:34;3.30;;;1.13;;
7647;SDS011;3866;48.020;11.720;2023-07-13T14:04:04;4.07;;;1.30;;
7647;SDS011;3866;48.020;11.720;2023-07-13T14:06:31;2.47;;;1.20;;
7647;SDS011;3866;48.020;11.720;2023-07-13T14:08:59;2.67;;;1.60;;
7647;SDS011;3866;48.020;11.720;2023-07-13T14:11:26;3.43;;;1.10;;
7647;SDS011;3866;48.020;11.720;2023-07-13T14:13:54;4.07;;;1.50;;
7647;SDS011;3866;48.020;11.720;2023-07-13T14:16:25;2.43;;;1.47;;
7647;SDS011;3866;48.020;11.720;2023-07-13T14:18:54;3.83;;;1.50;;
7647;SDS011;3866;48.020;11.720;2023-07-13T14:21:26;3.47;;;1.20;;
7647;SDS011;3866;48.020;11.720;2023-07-13T14:23:55;2.43;;;1.20;;
7647;SDS011;3866;48.020;11.720;2023-07-13T14:26:23;3.20;;;1.30;;
7647;SDS011;3866;48.020;11.720;2023-07-13T14:28:52;1.73;;;1.27;;
7647;SDS011;3866;48.020;11.720;2023-07-13T14:31:21;1.43;;;1.13;;
7647;SDS011;3866;48.020;11.720;2023-07-13T14:33:49;4.43;;;1.30;;
7647;SDS011;3866;48.020;11.720;2023-07-13T14:36:21;4.80;;;1.67;;
7647;SDS011;3866;48.020;11.720;2023-07-13T14:38:54;2.33;;;1.87;;
7647;SDS011;3866;48.020;11.720;2023-07-13T14:41:21;3.77;;;2.20;;
7647;SDS011;3866;48.020;11.720;2023-07-13T14:43:49;4.07;;;1.53;;
7647;SDS011;3866;48.020;11.720;2023-07-13T14:46:18;2.43;;;1.37;;
7647;SDS011;3866;48.020;11.720;2023-07-13T14:48:52;1.83;;;1.30;;
7647;SDS011;3866;48.020;11.720;2023-07-13T14:51:24;1.20;;;1.03;;
7647;SDS011;3866;48.020;11.720;2023-07-13T14:53:53;2.90;;;1.57;;
7647;SDS011;3866;48.020;11.720;2023-07-13T14:56:18;2.10;;;1.13;;
7647;SDS011;3866;48.020;11.720;2023-07-13T14:58:45;4.90;;;1.60;;
7647;SDS011;3866;48.020;11.720;2023-07-13T15:01:12;3.03;;;1.20;;
7647;SDS011;3866;48.020;11.720;2023-07-13T15:03:41;3.33;;;1.60;;
7647;SDS011;3866;48.020;11.720;2023-07-13T15:06:12;3.93;;;1.47;;
7647;SDS011;3866;48.020;11.720;2023-07-13T15:08:40;2.13;;;1.20;;
7647;SDS011;3866;48.020;11.720;2023-07-13T15:11:07;1.30;;;1.20;;
7647;SDS011;3866;48.020;11.720;2023-07-13T15:13:37;2.17;;;1.27;;
7647;SDS011;3866;48.020;11.720;2023-07-13T15:16:04;4.10;;;1.23;;
7647;SDS011;3866;48.020;11.720;2023-07-13T15:18:38;1.87;;;1.37;;
7647;SDS011;3866;48.020;11.720;2023-07-13T15:21:07;0.97;;;0.90;;
7647;SDS011;3866;48.020;11.720;2023-07-13T15:23:38;3.80;;;1.50;;
7647;SDS011;3866;48.020;11.720;2023-07-13T15:26:08;3.33;;;1.70;;